sensor_id;sensor_type;location;lat;lon;timestamp;P1;durP1;ratioP1;P2;durP2;ratioP2
46613;SDS011;32338;50.430;6.806;2022-12-07T00:00:08;55.03;;;21.80;;
46613;SDS011;32338;50.430;6.806;2022-12-07T00:02:35;45.63;;;20.00;;
46613;SDS011;32338;50.430;6.806;2022-12-07T00:05:03;54.53;;;21.58;;
46613;SDS011;32338;50.430;6.806;2022-12-07T00:07:30;58.20;;;21.65;;
46613;SDS011;32338;50.430;6.806;2022-12-07T00:09:57;49.80;;;20.08;;
46613;SDS011;32338;50.430;6.806;2022-12-07T00:12:23;51.25;;;21.42;;
46613;SDS011;32338;50.430;6.806;2022-12-07T00:14:50;54.17;;;20.90;;
46613;SDS011;32338;50.430;6.806;2022-12-07T00:17:16;57.28;;;21.88;;
46613;SDS011;32338;50.430;6.806;2022-12-07T00:19:43;52.95;;;21.48;;
46613;SDS011;32338;50.430;6.806;2022-12-07T00:22:11;56.33;;;21.25;;
46613;SDS011;32338;50.430;6.806;2022-12-07T00:24:38;50.13;;;21.02;;
46613;SDS011;32338;50.430;6.806;2022-12-07T00:27:04;58.17;;;21.25;;
46613;SDS011;32338;50.430;6.806;2022-12-07T00:29:31;61.33;;;20.73;;
46613;SDS011;32338;50.430;6.806;2022-12-07T00:31:58;51.15;;;20.25;;
46613;SDS011;32338;50.430;6.806;2022-12-07T00:34:24;51.60;;;20.30;;
46613;SDS011;32338;50.430;6.806;2022-12-07T00:36:51;52.72;;;20.60;;
46613;SDS011;32338;50.430;6.806;2022-12-07T00:39:19;48.90;;;18.52;;
46613;SDS011;32338;50.430;6.806;2022-12-07T00:41:46;45.13;;;17.02;;
46613;SDS011;32338;50.430;6.806;2022-12-07T00:44:12;51.40;;;18.02;;
46613;SDS011;32338;50.430;6.806;2022-12-07T00:46:39;43.08;;;18.25;;
46613;SDS011;32338;50.430;6.806;2022-12-07T00:49:06;42.05;;;16.85;;
46613;SDS011;32338;50.430;6.806;2022-12-07T00:51:32;31.42;;;13.60;;
46613;SDS011;32338;50.430;6.806;2022-12-07T00:53:59;43.67;;;16.05;;
46613;SDS011;32338;50.430;6.806;2022-12-07T00:56:28;37.47;;;14.27;;
46613;SDS011;32338;50.430;6.806;2022-12-07T00:58:55;36.45;;;14.32;;
46613;SDS011;32338;50.430;6.806;2022-12-07T01:01:24;40.97;;;15.30;;
46613;SDS011;32338;50.430;6.806;2022-12-07T01:03:51;34.00;;;14.75;;
46613;SDS011;32338;50.430;6.806;2022-12-07T01:06:19;35.28;;;14.65;;
46613;SDS011;32338;50.430;6.806;2022-12-07T01:08:47;24.95;;;11.95;;
46613;SDS011;32338;50.430;6.806;2022-12-07T01:11:16;30.45;;;12.80;;
46613;SDS011;32338;50.430;6.806;2022-12-07T01:13:45;31.27;;;13.98;;
46613;SDS011;32338;50.430;6.806;2022-12-07T01:16:14;26.23;;;12.82;;
46613;SDS011;32338;50.430;6.806;2022-12-07T01:18:42;28.73;;;12.35;;
46613;SDS011;32338;50.430;6.806;2022-12-07T01:21:12;22.75;;;11.18;;
46613;SDS011;32338;50.430;6.806;2022-12-07T01:23:41;26.52;;;12.10;;
46613;SDS011;32338;50.430;6.806;2022-12-07T01:26:09;22.83;;;10.60;;
46613;SDS011;32338;50.430;6.806;2022-12-07T01:28:37;20.25;;;10.50;;
46613;SDS011;32338;50.430;6.806;2022-12-07T01:31:06;27.98;;;12.02;;
46613;SDS011;32338;50.430;6.806;2022-12-07T01:33:35;25.35;;;10.80;;
46613;SDS011;32338;50.430;6.806;2022-12-07T01:36:02;20.65;;;10.65;;
46613;SDS011;32338;50.430;6.806;2022-12-07T01:38:29;26.38;;;10.73;;
46613;SDS011;32338;50.430;6.806;2022-12-07T01:40:56;22.33;;;10.27;;
46613;SDS011;32338;50.430;6.806;2022-12-07T01:43:24;20.75;;;10.35;;
46613;SDS011;32338;50.430;6.806;2022-12-07T01:45:53;17.42;;;9.48;;
46613;SDS011;32338;50.430;6.806;2022-12-07T01:48:22;21.50;;;10.23;;
46613;SDS011;32338;50.430;6.806;2022-12-07T01:50:51;21.70;;;10.32;;
46613;SDS011;32338;50.430;6.806;2022-12-07T01:53:21;21.13;;;10.25;;
46613;SDS011;32338;50.430;6.806;2022-12-07T01:55:52;21.52;;;10.57;;
46613;SDS011;32338;50.430;6.806;2022-12-07T01:58:21;23.15;;;10.73;;
46613;SDS011;32338;50.430;6.806;2022-12-07T02:00:48;22.85;;;9.90;;
46613;SDS011;32338;50.430;6.806;2022-12-07T02:03:16;21.02;;;10.50;;
46613;SDS011;32338;50.430;6.806;2022-12-07T02:05:49;19.58;;;10.63;;
46613;SDS011;32338;50.430;6.806;2022-12-07T02:08:17;25.08;;;11.32;;
46613;SDS011;32338;50.430;6.806;2022-12-07T02:10:44;27.15;;;10.90;;
46613;SDS011;32338;50.430;6.806;2022-12-07T02:13:11;20.95;;;10.95;;
46613;SDS011;32338;50.430;6.806;2022-12-07T02:15:51;22.27;;;10.18;;
46613;SDS011;32338;50.430;6.806;2022-12-07T02:18:33;24.10;;;10.57;;
46613;SDS011;32338;50.430;6.806;2022-12-07T02:21:09;20.65;;;10.80;;
46613;SDS011;32338;50.430;6.806;2022-12-07T02:23:40;19.25;;;10.43;;
46613;SDS011;32338;50.430;6.806;2022-12-07T02:26:26;22.73;;;11.60;;
46613;SDS011;32338;50.430;6.806;2022-12-07T02:29:16;22.23;;;10.48;;
46613;SDS011;32338;50.430;6.806;2022-12-07T02:31:50;25.40;;;11.57;;
46613;SDS011;32338;50.430;6.806;2022-12-07T02:34:26;21.38;;;10.68;;
46613;SDS011;32338;50.430;6.806;2022-12-07T02:37:01;27.63;;;11.45;;
46613;SDS011;32338;50.430;6.806;2022-12-07T02:39:37;29.35;;;11.15;;
46613;SDS011;32338;50.430;6.806;2022-12-07T02:42:10;22.92;;;11.15;;
46613;SDS011;32338;50.430;6.806;2022-12-07T02:44:43;22.15;;;10.45;;
46613;SDS011;32338;50.430;6.806;2022-12-07T02:47:12;28.05;;;11.85;;
46613;SDS011;32338;50.430;6.806;2022-12-07T02:49:42;20.33;;;10.65;;
46613;SDS011;32338;50.430;6.806;2022-12-07T02:52:09;28.08;;;11.82;;
46613;SDS011;32338;50.430;6.806;2022-12-07T02:54:35;22.48;;;11.35;;
46613;SDS011;32338;50.430;6.806;2022-12-07T02:57:04;22.92;;;12.05;;
46613;SDS011;32338;50.430;6.806;2022-12-07T02:59:46;21.63;;;10.95;;
46613;SDS011;32338;50.430;6.806;2022-12-07T03:02:25;21.13;;;11.75;;
46613;SDS011;32338;50.430;6.806;2022-12-07T03:05:04;21.95;;;11.60;;
46613;SDS011;32338;50.430;6.806;2022-12-07T03:07:42;23.08;;;11.45;;
46613;SDS011;32338;50.430;6.806;2022-12-07T03:10:17;22.58;;;11.48;;
46613;SDS011;32338;50.430;6.806;2022-12-07T03:12:52;14.50;;;7.53;;
46613;SDS011;32338;50.430;6.806;2022-12-07T03:15:31;19.85;;;10.48;;
46613;SDS011;32338;50.430;6.806;2022-12-07T03:18:02;19.75;;;10.60;;
46613;SDS011;32338;50.430;6.806;2022-12-07T03:20:31;21.48;;;10.55;;
46613;SDS011;32338;50.430;6.806;2022-12-07T03:23:02;21.85;;;10.52;;
46613;SDS011;32338;50.430;6.806;2022-12-07T03:25:30;20.80;;;9.82;;
46613;SDS011;32338;50.430;6.806;2022-12-07T03:28:01;22.77;;;10.60;;
46613;SDS011;32338;50.430;6.806;2022-12-07T03:30:34;19.80;;;10.45;;
46613;SDS011;32338;50.430;6.806;2022-12-07T03:33:06;20.45;;;9.80;;
46613;SDS011;32338;50.430;6.806;2022-12-07T03:35:36;16.95;;;9.65;;
46613;SDS011;32338;50.430;6.806;2022-12-07T03:38:08;19.27;;;9.52;;
46613;SDS011;32338;50.430;6.806;2022-12-07T03:40:43;13.60;;;7.85;;
46613;SDS011;32338;50.430;6.806;2022-12-07T03:43:14;18.10;;;9.73;;
46613;SDS011;32338;50.430;6.806;2022-12-07T03:45:44;23.27;;;10.13;;
46613;SDS011;32338;50.430;6.806;2022-12-07T03:48:20;16.38;;;10.27;;
46613;SDS011;32338;50.430;6.806;2022-12-07T03:50:52;22.08;;;10.88;;
46613;SDS011;32338;50.430;6.806;2022-12-07T03:53:26;16.05;;;9.43;;
46613;SDS011;32338;50.430;6.806;2022-12-07T03:55:59;17.92;;;10.10;;
46613;SDS011;32338;50.430;6.806;2022-12-07T03:58:28;18.98;;;10.25;;
46613;SDS011;32338;50.430;6.806;2022-12-07T04:00:58;14.90;;;9.43;;
46613;SDS011;32338;50.430;6.806;2022-12-07T04:03:24;25.20;;;9.63;;
46613;SDS011;32338;50.430;6.806;2022-12-07T04:05:51;16.95;;;9.30;;
46613;SDS011;32338;50.430;6.806;2022-12-07T04:08:18;17.13;;;8.85;;
46613;SDS011;32338;50.430;6.806;2022-12-07T04:10:44;15.23;;;8.55;;
46613;SDS011;32338;50.430;6.806;2022-12-07T04:13:11;16.35;;;8.63;;
46613;SDS011;32338;50.430;6.806;2022-12-07T04:15:37;13.23;;;8.95;;
46613;SDS011;32338;50.430;6.806;2022-12-07T04:18:05;12.75;;;8.43;;
46613;SDS011;32338;50.430;6.806;2022-12-07T04:20:32;16.38;;;9.18;;
46613;SDS011;32338;50.430;6.806;2022-12-07T04:22:59;17.10;;;8.25;;
46613;SDS011;32338;50.430;6.806;2022-12-07T04:25:25;17.17;;;8.15;;
46613;SDS011;32338;50.430;6.806;2022-12-07T04:27:52;19.13;;;9.85;;
46613;SDS011;32338;50.430;6.806;2022-12-07T04:30:19;22.98;;;9.98;;
46613;SDS011;32338;50.430;6.806;2022-12-07T04:32:45;19.77;;;9.55;;
46613;SDS011;32338;50.430;6.806;2022-12-07T04:35:13;19.42;;;9.60;;
46613;SDS011;32338;50.430;6.806;2022-12-07T04:37:40;19.73;;;10.82;;
46613;SDS011;32338;50.430;6.806;2022-12-07T04:40:07;24.48;;;11.20;;
46613;SDS011;32338;50.430;6.806;2022-12-07T04:42:36;24.35;;;11.43;;
46613;SDS011;32338;50.430;6.806;2022-12-07T04:45:03;21.63;;;11.45;;
46613;SDS011;32338;50.430;6.806;2022-12-07T04:47:30;19.83;;;11.20;;
46613;SDS011;32338;50.430;6.806;2022-12-07T04:49:56;25.75;;;11.65;;
46613;SDS011;32338;50.430;6.806;2022-12-07T04:52:24;26.20;;;11.88;;
46613;SDS011;32338;50.430;6.806;2022-12-07T04:54:51;29.33;;;12.23;;
46613;SDS011;32338;50.430;6.806;2022-12-07T04:57:17;28.98;;;12.20;;
46613;SDS011;32338;50.430;6.806;2022-12-07T04:59:44;29.95;;;12.32;;
46613;SDS011;32338;50.430;6.806;2022-12-07T05:02:11;32.05;;;12.23;;
46613;SDS011;32338;50.430;6.806;2022-12-07T05:04:37;24.33;;;10.77;;
46613;SDS011;32338;50.430;6.806;2022-12-07T05:07:04;27.98;;;13.32;;
46613;SDS011;32338;50.430;6.806;2022-12-07T05:09:32;30.02;;;12.43;;
46613;SDS011;32338;50.430;6.806;2022-12-07T05:11:58;40.38;;;13.75;;
46613;SDS011;32338;50.430;6.806;2022-12-07T05:14:25;33.38;;;13.93;;
46613;SDS011;32338;50.430;6.806;2022-12-07T05:16:52;27.90;;;11.80;;
46613;SDS011;32338;50.430;6.806;2022-12-07T05:19:19;35.30;;;14.27;;
46613;SDS011;32338;50.430;6.806;2022-12-07T05:21:46;27.23;;;12.85;;
46613;SDS011;32338;50.430;6.806;2022-12-07T05:24:13;27.23;;;12.32;;
46613;SDS011;32338;50.430;6.806;2022-12-07T05:26:42;28.95;;;12.90;;
46613;SDS011;32338;50.430;6.806;2022-12-07T05:29:10;26.73;;;12.43;;
46613;SDS011;32338;50.430;6.806;2022-12-07T05:31:37;26.02;;;11.85;;
46613;SDS011;32338;50.430;6.806;2022-12-07T05:34:04;29.45;;;12.68;;
46613;SDS011;32338;50.430;6.806;2022-12-07T05:36:30;25.02;;;11.93;;
46613;SDS011;32338;50.430;6.806;2022-12-07T05:38:57;31.52;;;14.02;;
46613;SDS011;32338;50.430;6.806;2022-12-07T05:41:24;28.77;;;12.88;;
46613;SDS011;32338;50.430;6.806;2022-12-07T05:44:14;26.25;;;10.77;;
46613;SDS011;32338;50.430;6.806;2022-12-07T05:46:41;23.48;;;11.35;;
46613;SDS011;32338;50.430;6.806;2022-12-07T05:49:08;23.35;;;11.18;;
46613;SDS011;32338;50.430;6.806;2022-12-07T05:51:34;25.73;;;11.48;;
46613;SDS011;32338;50.430;6.806;2022-12-07T05:54:01;24.35;;;10.57;;
46613;SDS011;32338;50.430;6.806;2022-12-07T05:58:54;25.08;;;10.65;;
46613;SDS011;32338;50.430;6.806;2022-12-07T06:01:41;23.90;;;10.57;;
46613;SDS011;32338;50.430;6.806;2022-12-07T06:04:07;23.13;;;10.73;;
46613;SDS011;32338;50.430;6.806;2022-12-07T06:06:34;27.80;;;10.77;;
46613;SDS011;32338;50.430;6.806;2022-12-07T06:09:00;23.75;;;10.25;;
46613;SDS011;32338;50.430;6.806;2022-12-07T06:11:28;21.90;;;10.50;;
46613;SDS011;32338;50.430;6.806;2022-12-07T06:14:12;23.35;;;10.20;;
46613;SDS011;32338;50.430;6.806;2022-12-07T06:16:38;24.77;;;10.02;;
46613;SDS011;32338;50.430;6.806;2022-12-07T06:19:06;20.30;;;10.48;;
46613;SDS011;32338;50.430;6.806;2022-12-07T06:21:33;24.75;;;10.90;;
46613;SDS011;32338;50.430;6.806;2022-12-07T06:23:59;26.65;;;11.50;;
46613;SDS011;32338;50.430;6.806;2022-12-07T06:26:26;26.08;;;12.85;;
46613;SDS011;32338;50.430;6.806;2022-12-07T06:28:53;36.85;;;17.65;;
46613;SDS011;32338;50.430;6.806;2022-12-07T06:31:20;23.23;;;12.85;;
46613;SDS011;32338;50.430;6.806;2022-12-07T06:33:46;26.08;;;11.82;;
46613;SDS011;32338;50.430;6.806;2022-12-07T06:36:14;24.48;;;11.45;;
46613;SDS011;32338;50.430;6.806;2022-12-07T06:38:41;24.58;;;11.63;;
46613;SDS011;32338;50.430;6.806;2022-12-07T06:41:07;20.55;;;10.50;;
46613;SDS011;32338;50.430;6.806;2022-12-07T06:43:34;18.60;;;11.02;;
46613;SDS011;32338;50.430;6.806;2022-12-07T06:46:00;26.25;;;11.57;;
46613;SDS011;32338;50.430;6.806;2022-12-07T06:48:27;23.73;;;11.75;;
46613;SDS011;32338;50.430;6.806;2022-12-07T06:50:54;25.30;;;11.32;;
46613;SDS011;32338;50.430;6.806;2022-12-07T06:53:22;20.58;;;10.98;;
46613;SDS011;32338;50.430;6.806;2022-12-07T06:55:48;26.63;;;10.45;;
46613;SDS011;32338;50.430;6.806;2022-12-07T06:58:15;18.73;;;10.05;;
46613;SDS011;32338;50.430;6.806;2022-12-07T07:00:43;22.17;;;9.85;;
46613;SDS011;32338;50.430;6.806;2022-12-07T07:03:09;18.20;;;9.77;;
46613;SDS011;32338;50.430;6.806;2022-12-07T07:05:36;24.90;;;9.73;;
46613;SDS011;32338;50.430;6.806;2022-12-07T07:08:03;22.88;;;9.57;;
46613;SDS011;32338;50.430;6.806;2022-12-07T07:10:31;24.13;;;9.73;;
46613;SDS011;32338;50.430;6.806;2022-12-07T07:12:57;22.02;;;10.02;;
46613;SDS011;32338;50.430;6.806;2022-12-07T07:15:24;17.58;;;9.25;;
46613;SDS011;32338;50.430;6.806;2022-12-07T07:17:51;19.52;;;9.85;;
46613;SDS011;32338;50.430;6.806;2022-12-07T07:20:17;21.65;;;8.77;;
46613;SDS011;32338;50.430;6.806;2022-12-07T07:22:44;20.52;;;8.77;;
46613;SDS011;32338;50.430;6.806;2022-12-07T07:25:11;22.02;;;9.77;;
46613;SDS011;32338;50.430;6.806;2022-12-07T07:27:39;21.52;;;8.80;;
46613;SDS011;32338;50.430;6.806;2022-12-07T07:30:06;26.08;;;10.50;;
46613;SDS011;32338;50.430;6.806;2022-12-07T07:32:34;22.80;;;10.13;;
46613;SDS011;32338;50.430;6.806;2022-12-07T07:35:00;22.42;;;10.10;;
46613;SDS011;32338;50.430;6.806;2022-12-07T07:37:27;21.13;;;9.73;;
46613;SDS011;32338;50.430;6.806;2022-12-07T07:39:54;24.35;;;9.43;;
46613;SDS011;32338;50.430;6.806;2022-12-07T07:42:20;19.38;;;8.85;;
46613;SDS011;32338;50.430;6.806;2022-12-07T07:44:48;23.83;;;9.23;;
46613;SDS011;32338;50.430;6.806;2022-12-07T07:47:15;24.23;;;10.40;;
46613;SDS011;32338;50.430;6.806;2022-12-07T07:49:42;16.63;;;9.07;;
46613;SDS011;32338;50.430;6.806;2022-12-07T07:52:09;25.00;;;9.98;;
46613;SDS011;32338;50.430;6.806;2022-12-07T07:54:36;65.00;;;29.52;;
46613;SDS011;32338;50.430;6.806;2022-12-07T07:57:02;32.55;;;14.20;;
46613;SDS011;32338;50.430;6.806;2022-12-07T07:59:29;22.55;;;11.60;;
46613;SDS011;32338;50.430;6.806;2022-12-07T08:01:57;26.60;;;10.77;;
46613;SDS011;32338;50.430;6.806;2022-12-07T08:04:24;29.73;;;13.35;;
46613;SDS011;32338;50.430;6.806;2022-12-07T08:06:51;21.08;;;10.50;;
46613;SDS011;32338;50.430;6.806;2022-12-07T08:09:18;31.10;;;10.50;;
46613;SDS011;32338;50.430;6.806;2022-12-07T08:11:44;22.50;;;9.48;;
46613;SDS011;32338;50.430;6.806;2022-12-07T08:14:11;30.17;;;11.57;;
46613;SDS011;32338;50.430;6.806;2022-12-07T08:16:39;24.05;;;10.38;;
46613;SDS011;32338;50.430;6.806;2022-12-07T08:19:08;16.75;;;9.20;;
46613;SDS011;32338;50.430;6.806;2022-12-07T08:21:34;23.75;;;9.50;;
46613;SDS011;32338;50.430;6.806;2022-12-07T08:24:01;22.30;;;10.35;;
46613;SDS011;32338;50.430;6.806;2022-12-07T08:26:28;24.20;;;10.35;;
46613;SDS011;32338;50.430;6.806;2022-12-07T08:28:54;23.52;;;10.05;;
46613;SDS011;32338;50.430;6.806;2022-12-07T08:31:21;21.42;;;9.85;;
46613;SDS011;32338;50.430;6.806;2022-12-07T08:33:48;21.65;;;10.07;;
46613;SDS011;32338;50.430;6.806;2022-12-07T08:36:16;15.85;;;8.68;;
46613;SDS011;32338;50.430;6.806;2022-12-07T08:38:43;19.00;;;9.93;;
46613;SDS011;32338;50.430;6.806;2022-12-07T08:41:10;26.05;;;9.25;;
46613;SDS011;32338;50.430;6.806;2022-12-07T08:43:36;24.55;;;9.80;;
46613;SDS011;32338;50.430;6.806;2022-12-07T08:46:06;21.52;;;9.50;;
46613;SDS011;32338;50.430;6.806;2022-12-07T08:48:36;27.65;;;10.60;;
46613;SDS011;32338;50.430;6.806;2022-12-07T08:51:06;25.23;;;9.57;;
46613;SDS011;32338;50.430;6.806;2022-12-07T08:53:35;20.10;;;8.77;;
46613;SDS011;32338;50.430;6.806;2022-12-07T08:56:05;20.63;;;8.75;;
46613;SDS011;32338;50.430;6.806;2022-12-07T08:58:34;20.02;;;8.43;;
46613;SDS011;32338;50.430;6.806;2022-12-07T09:01:04;19.88;;;8.68;;
46613;SDS011;32338;50.430;6.806;2022-12-07T09:03:31;18.05;;;7.72;;
46613;SDS011;32338;50.430;6.806;2022-12-07T09:05:59;15.68;;;7.22;;
46613;SDS011;32338;50.430;6.806;2022-12-07T09:08:31;17.90;;;7.30;;
46613;SDS011;32338;50.430;6.806;2022-12-07T09:11:02;16.50;;;7.05;;
46613;SDS011;32338;50.430;6.806;2022-12-07T09:13:29;16.40;;;7.18;;
46613;SDS011;32338;50.430;6.806;2022-12-07T09:15:55;15.50;;;7.18;;
46613;SDS011;32338;50.430;6.806;2022-12-07T09:18:25;12.48;;;7.22;;
46613;SDS011;32338;50.430;6.806;2022-12-07T09:20:52;13.25;;;6.53;;
46613;SDS011;32338;50.430;6.806;2022-12-07T09:23:19;12.25;;;6.20;;
46613;SDS011;32338;50.430;6.806;2022-12-07T09:25:45;19.83;;;6.78;;
46613;SDS011;32338;50.430;6.806;2022-12-07T09:28:13;14.13;;;6.40;;
46613;SDS011;32338;50.430;6.806;2022-12-07T09:30:44;11.52;;;6.18;;
46613;SDS011;32338;50.430;6.806;2022-12-07T09:33:11;12.00;;;5.88;;
46613;SDS011;32338;50.430;6.806;2022-12-07T09:35:38;21.88;;;10.68;;
46613;SDS011;32338;50.430;6.806;2022-12-07T09:38:10;43.95;;;21.88;;
46613;SDS011;32338;50.430;6.806;2022-12-07T09:40:37;11.90;;;6.45;;
46613;SDS011;32338;50.430;6.806;2022-12-07T09:43:04;13.20;;;5.72;;
46613;SDS011;32338;50.430;6.806;2022-12-07T09:45:33;11.75;;;6.35;;
46613;SDS011;32338;50.430;6.806;2022-12-07T09:48:02;10.98;;;5.43;;
46613;SDS011;32338;50.430;6.806;2022-12-07T09:50:30;9.38;;;5.18;;
46613;SDS011;32338;50.430;6.806;2022-12-07T09:53:02;11.63;;;5.65;;
46613;SDS011;32338;50.430;6.806;2022-12-07T09:55:34;10.95;;;5.45;;
46613;SDS011;32338;50.430;6.806;2022-12-07T09:58:02;8.45;;;5.13;;
46613;SDS011;32338;50.430;6.806;2022-12-07T10:00:30;9.82;;;5.32;;
46613;SDS011;32338;50.430;6.806;2022-12-07T10:02:58;10.85;;;4.82;;
46613;SDS011;32338;50.430;6.806;2022-12-07T10:05:27;16.80;;;5.35;;
46613;SDS011;32338;50.430;6.806;2022-12-07T10:07:56;11.52;;;6.13;;
46613;SDS011;32338;50.430;6.806;2022-12-07T10:10:23;12.35;;;6.05;;
46613;SDS011;32338;50.430;6.806;2022-12-07T10:12:53;8.55;;;4.82;;
46613;SDS011;32338;50.430;6.806;2022-12-07T10:15:22;6.40;;;5.30;;
46613;SDS011;32338;50.430;6.806;2022-12-07T10:17:50;10.82;;;4.75;;
46613;SDS011;32338;50.430;6.806;2022-12-07T10:20:21;8.40;;;5.18;;
46613;SDS011;32338;50.430;6.806;2022-12-07T10:22:56;5.60;;;4.07;;
46613;SDS011;32338;50.430;6.806;2022-12-07T10:25:26;6.82;;;3.78;;
46613;SDS011;32338;50.430;6.806;2022-12-07T10:30:48;6.05;;;4.32;;
46613;SDS011;32338;50.430;6.806;2022-12-07T10:36:09;4.75;;;3.40;;
46613;SDS011;32338;50.430;6.806;2022-12-07T10:38:45;9.02;;;3.60;;
46613;SDS011;32338;50.430;6.806;2022-12-07T10:41:13;6.38;;;3.25;;
46613;SDS011;32338;50.430;6.806;2022-12-07T10:43:46;6.63;;;3.03;;
46613;SDS011;32338;50.430;6.806;2022-12-07T10:46:20;5.93;;;2.90;;
46613;SDS011;32338;50.430;6.806;2022-12-07T10:49:01;6.65;;;2.40;;
46613;SDS011;32338;50.430;6.806;2022-12-07T10:51:38;7.63;;;2.50;;
46613;SDS011;32338;50.430;6.806;2022-12-07T10:54:14;7.18;;;2.65;;
46613;SDS011;32338;50.430;6.806;2022-12-07T10:56:53;9.35;;;2.83;;
46613;SDS011;32338;50.430;6.806;2022-12-07T10:59:45;5.47;;;2.20;;
46613;SDS011;32338;50.430;6.806;2022-12-07T11:02:24;3.65;;;2.15;;
46613;SDS011;32338;50.430;6.806;2022-12-07T11:05:02;6.38;;;1.80;;
46613;SDS011;32338;50.430;6.806;2022-12-07T11:07:42;6.60;;;1.83;;
46613;SDS011;32338;50.430;6.806;2022-12-07T11:10:15;7.63;;;1.88;;
46613;SDS011;32338;50.430;6.806;2022-12-07T11:12:50;3.90;;;2.20;;
46613;SDS011;32338;50.430;6.806;2022-12-07T11:15:33;6.22;;;2.20;;
46613;SDS011;32338;50.430;6.806;2022-12-07T11:18:13;5.70;;;2.15;;
46613;SDS011;32338;50.430;6.806;2022-12-07T11:20:48;5.68;;;1.80;;
46613;SDS011;32338;50.430;6.806;2022-12-07T11:23:24;4.70;;;1.88;;
46613;SDS011;32338;50.430;6.806;2022-12-07T11:26:04;7.40;;;2.92;;
46613;SDS011;32338;50.430;6.806;2022-12-07T11:28:41;9.43;;;2.78;;
46613;SDS011;32338;50.430;6.806;2022-12-07T11:31:34;7.43;;;3.20;;
46613;SDS011;32338;50.430;6.806;2022-12-07T11:34:05;4.15;;;2.15;;
46613;SDS011;32338;50.430;6.806;2022-12-07T11:36:37;10.00;;;3.22;;
46613;SDS011;32338;50.430;6.806;2022-12-07T11:39:10;6.50;;;2.42;;
46613;SDS011;32338;50.430;6.806;2022-12-07T11:41:47;6.80;;;2.35;;
46613;SDS011;32338;50.430;6.806;2022-12-07T11:44:19;6.20;;;2.10;;
46613;SDS011;32338;50.430;6.806;2022-12-07T11:46:54;8.55;;;2.75;;
46613;SDS011;32338;50.430;6.806;2022-12-07T11:49:27;10.07;;;2.63;;
46613;SDS011;32338;50.430;6.806;2022-12-07T11:52:06;7.38;;;2.70;;
46613;SDS011;32338;50.430;6.806;2022-12-07T11:54:43;7.47;;;2.60;;
46613;SDS011;32338;50.430;6.806;2022-12-07T11:57:12;5.90;;;2.60;;
46613;SDS011;32338;50.430;6.806;2022-12-07T11:59:45;5.45;;;2.45;;
46613;SDS011;32338;50.430;6.806;2022-12-07T12:02:16;8.20;;;2.20;;
46613;SDS011;32338;50.430;6.806;2022-12-07T12:04:50;12.23;;;3.10;;
46613;SDS011;32338;50.430;6.806;2022-12-07T12:07:21;5.15;;;2.47;;
46613;SDS011;32338;50.430;6.806;2022-12-07T12:09:52;9.20;;;3.33;;
46613;SDS011;32338;50.430;6.806;2022-12-07T12:12:27;5.07;;;2.67;;
46613;SDS011;32338;50.430;6.806;2022-12-07T12:15:10;8.93;;;2.40;;
46613;SDS011;32338;50.430;6.806;2022-12-07T12:18:01;9.20;;;3.17;;
46613;SDS011;32338;50.430;6.806;2022-12-07T12:20:51;6.50;;;2.40;;
46613;SDS011;32338;50.430;6.806;2022-12-07T12:23:22;10.95;;;2.50;;
46613;SDS011;32338;50.430;6.806;2022-12-07T12:25:55;6.15;;;2.38;;
46613;SDS011;32338;50.430;6.806;2022-12-07T12:28:26;6.55;;;2.17;;
46613;SDS011;32338;50.430;6.806;2022-12-07T12:31:10;7.32;;;2.15;;
46613;SDS011;32338;50.430;6.806;2022-12-07T12:33:42;4.63;;;1.58;;
46613;SDS011;32338;50.430;6.806;2022-12-07T12:36:17;8.90;;;2.28;;
46613;SDS011;32338;50.430;6.806;2022-12-07T12:38:49;6.00;;;2.45;;
46613;SDS011;32338;50.430;6.806;2022-12-07T12:47:51;5.95;;;2.25;;
46613;SDS011;32338;50.430;6.806;2022-12-07T12:50:29;4.68;;;2.03;;
46613;SDS011;32338;50.430;6.806;2022-12-07T12:55:49;6.60;;;2.40;;
46613;SDS011;32338;50.430;6.806;2022-12-07T12:58:36;9.77;;;2.15;;
46613;SDS011;32338;50.430;6.806;2022-12-07T13:10:21;8.30;;;2.17;;
46613;SDS011;32338;50.430;6.806;2022-12-07T13:12:58;5.20;;;1.80;;
46613;SDS011;32338;50.430;6.806;2022-12-07T13:15:34;4.75;;;1.70;;
46613;SDS011;32338;50.430;6.806;2022-12-07T13:18:03;8.40;;;2.30;;
46613;SDS011;32338;50.430;6.806;2022-12-07T13:20:49;7.80;;;2.25;;
46613;SDS011;32338;50.430;6.806;2022-12-07T13:23:25;6.10;;;2.13;;
46613;SDS011;32338;50.430;6.806;2022-12-07T13:29:05;10.07;;;2.63;;
46613;SDS011;32338;50.430;6.806;2022-12-07T13:31:38;10.15;;;2.03;;
46613;SDS011;32338;50.430;6.806;2022-12-07T13:36:55;3.45;;;2.58;;
46613;SDS011;32338;50.430;6.806;2022-12-07T13:39:23;5.90;;;2.00;;
46613;SDS011;32338;50.430;6.806;2022-12-07T13:41:52;7.60;;;2.22;;
46613;SDS011;32338;50.430;6.806;2022-12-07T13:44:22;3.92;;;1.95;;
46613;SDS011;32338;50.430;6.806;2022-12-07T13:46:57;6.47;;;1.98;;
46613;SDS011;32338;50.430;6.806;2022-12-07T13:49:31;7.72;;;2.03;;
46613;SDS011;32338;50.430;6.806;2022-12-07T13:52:15;7.43;;;2.22;;
46613;SDS011;32338;50.430;6.806;2022-12-07T13:54:55;4.70;;;1.40;;
46613;SDS011;32338;50.430;6.806;2022-12-07T13:57:29;3.63;;;1.70;;
46613;SDS011;32338;50.430;6.806;2022-12-07T13:59:57;5.13;;;1.70;;
46613;SDS011;32338;50.430;6.806;2022-12-07T14:02:29;2.40;;;1.52;;
46613;SDS011;32338;50.430;6.806;2022-12-07T14:05:06;8.65;;;2.22;;
46613;SDS011;32338;50.430;6.806;2022-12-07T14:07:40;4.50;;;1.65;;
46613;SDS011;32338;50.430;6.806;2022-12-07T14:10:25;4.78;;;1.77;;
46613;SDS011;32338;50.430;6.806;2022-12-07T14:12:56;6.57;;;2.05;;
46613;SDS011;32338;50.430;6.806;2022-12-07T14:15:25;4.32;;;1.48;;
46613;SDS011;32338;50.430;6.806;2022-12-07T14:17:57;3.40;;;1.70;;
46613;SDS011;32338;50.430;6.806;2022-12-07T14:20:32;2.95;;;1.50;;
46613;SDS011;32338;50.430;6.806;2022-12-07T14:23:01;5.03;;;1.70;;
46613;SDS011;32338;50.430;6.806;2022-12-07T14:25:43;3.95;;;1.70;;
46613;SDS011;32338;50.430;6.806;2022-12-07T14:28:24;4.65;;;1.60;;
46613;SDS011;32338;50.430;6.806;2022-12-07T14:30:53;14.35;;;6.30;;
46613;SDS011;32338;50.430;6.806;2022-12-07T14:33:24;4.05;;;2.25;;
46613;SDS011;32338;50.430;6.806;2022-12-07T14:35:53;4.55;;;2.55;;
46613;SDS011;32338;50.430;6.806;2022-12-07T14:38:23;11.82;;;1.80;;
46613;SDS011;32338;50.430;6.806;2022-12-07T14:40:51;3.50;;;2.20;;
46613;SDS011;32338;50.430;6.806;2022-12-07T14:43:19;4.07;;;2.35;;
46613;SDS011;32338;50.430;6.806;2022-12-07T14:45:47;6.35;;;2.25;;
46613;SDS011;32338;50.430;6.806;2022-12-07T14:48:17;7.15;;;2.15;;
46613;SDS011;32338;50.430;6.806;2022-12-07T14:50:48;6.60;;;2.42;;
46613;SDS011;32338;50.430;6.806;2022-12-07T14:53:18;5.75;;;2.40;;
46613;SDS011;32338;50.430;6.806;2022-12-07T14:58:21;3.80;;;2.08;;
46613;SDS011;32338;50.430;6.806;2022-12-07T15:00:47;5.47;;;2.30;;
46613;SDS011;32338;50.430;6.806;2022-12-07T15:03:17;7.50;;;2.60;;
46613;SDS011;32338;50.430;6.806;2022-12-07T15:05:46;4.28;;;2.40;;
46613;SDS011;32338;50.430;6.806;2022-12-07T15:08:17;6.43;;;2.22;;
46613;SDS011;32338;50.430;6.806;2022-12-07T15:10:46;4.68;;;2.45;;
46613;SDS011;32338;50.430;6.806;2022-12-07T15:13:13;3.17;;;2.40;;
46613;SDS011;32338;50.430;6.806;2022-12-07T15:15:57;4.97;;;2.35;;
46613;SDS011;32338;50.430;6.806;2022-12-07T15:18:25;4.90;;;2.65;;
46613;SDS011;32338;50.430;6.806;2022-12-07T15:20:53;4.13;;;2.60;;
46613;SDS011;32338;50.430;6.806;2022-12-07T15:23:22;5.40;;;3.17;;
46613;SDS011;32338;50.430;6.806;2022-12-07T15:25:49;6.78;;;2.80;;